Delta Virtual Airport Information Service

Belfast International Airport

ICAO: EGAA Country: United Kingdom
Latitude: 54.6575 Longitude: -6.21583
Latest Arrival : EZY131 (1) (EGCC-EGAA) Latest Departure : EZY130 (1) (EGAA-EGCC)


WX CaptureLIVE
Data provided by noaa.gov | Fetched at 07:47:11

METAR : EGAA 061250Z 23007KT 190V260 9999 SCT029 06/M00 Q1033

TAF : EGAA 061058Z 0612/0712 21005KT 9999 SCT032= EGPD 061056Z 0612/0712 24004KT 9999 SCT045 TEMPO 0701/0709 6000 RA TEMPO 0709/0712 4000 +RA BKN012


Runway Data for EGAA
Data provided by openaviationdata.com

Runway ID Mag Var Hdg Length Elevation Surface ILS Freq ILS Id ILS Slope
7 -6 71° 9100 ft 223 ft Asphalt -- -- --
17 -6 167° 6194 ft 223 ft Asphalt 110.9 IFT 3
25 -6 251° 9100 ft 223 ft Asphalt 109.9 IAG 3
35 -6 347° 6194 ft 223 ft Asphalt -- -- --

Belfast International Airport, United Kingdom
Use only for reference purposes



Not for navigational purposes.